Time;durP1;ratioP1;P1;durP2;ratioP2;P2;SDS_P1;SDS_P2;PMS_P1;PMS_P2;Temp;Humidity;BMP_temperature;BMP_pressure;BME280_temperature;BME280_humidity;BME280_pressure;Samples;Min_cycle;Max_cycle;Signal;HPM_P1;HPM_P2
2023/09/03 00:01:42;;;;;;;221.20;11.43;;;10.00;99.90;;;;;;5054687;28;20045;-24
2023/09/03 00:04:08;;;;;;;212.95;11.75;;;10.10;99.90;;;;;;5054662;28;20132;-24
2023/09/03 00:06:34;;;;;;;122.40;12.43;;;10.00;99.90;;;;;;5054577;28;20136;-24
2023/09/03 00:09:00;;;;;;;54.92;8.13;;;10.10;99.90;;;;;;5053337;28;20135;-24
2023/09/03 00:11:25;;;;;;;10.63;6.80;;;10.00;99.90;;;;;;5055385;28;20045;-24
2023/09/03 00:13:51;;;;;;;6.90;6.10;;;10.10;99.90;;;;;;5054753;28;20048;-24
2023/09/03 00:16:17;;;;;;;42.20;5.93;;;10.00;99.90;;;;;;5054438;28;20041;-24
2023/09/03 00:18:42;;;;;;;63.13;6.93;;;10.00;99.90;;;;;;5054674;28;20085;-24
2023/09/03 00:21:08;;;;;;;20.02;5.45;;;9.80;99.90;;;;;;5054659;28;20098;-24
2023/09/03 00:23:34;;;;;;;25.52;6.55;;;9.70;99.90;;;;;;5054333;28;20045;-24
2023/09/03 00:26:00;;;;;;;399.67;24.45;;;9.70;99.90;;;;;;5054262;28;20041;-24
2023/09/03 00:28:27;;;;;;;253.93;17.50;;;9.70;99.90;;;;;;5054209;28;20056;-24
2023/09/03 00:31:20;;;;;;;86.22;10.95;;;9.80;99.90;;;;;;5054193;28;20127;-24
2023/09/03 00:33:46;;;;;;;95.30;11.10;;;9.90;99.90;;;;;;5052539;28;20068;-24
2023/09/03 00:36:14;;;;;;;97.60;10.93;;;9.90;99.90;;;;;;5054092;28;20044;-24
2023/09/03 00:38:39;;;;;;;172.15;16.65;;;9.80;99.90;;;;;;5054097;28;20049;-23
2023/09/03 00:41:05;;;;;;;51.53;10.00;;;9.80;99.90;;;;;;5053873;28;20056;-24
2023/09/03 00:43:34;;;;;;;15.13;7.07;;;9.70;99.90;;;;;;5037207;28;20109;-23
2023/09/03 00:46:06;;;;;;;6.65;5.68;;;9.80;99.90;;;;;;5053893;28;20127;-24
2023/09/03 00:48:32;;;;;;;10.13;6.38;;;9.80;99.90;;;;;;5054743;28;20045;-24
2023/09/03 00:51:02;;;;;;;7.90;6.22;;;9.70;99.90;;;;;;5053872;28;20060;-23
2023/09/03 00:53:30;;;;;;;167.88;12.10;;;9.80;99.90;;;;;;5054113;28;20059;-23
2023/09/03 00:55:57;;;;;;;287.40;19.38;;;9.80;99.90;;;;;;5053794;28;20068;-24
2023/09/03 00:58:23;;;;;;;272.20;16.33;;;9.80;99.90;;;;;;5053479;28;20410;-23
2023/09/03 01:00:49;;;;;;;121.70;10.18;;;9.80;99.90;;;;;;5054282;28;20430;-24
2023/09/03 01:03:16;;;;;;;10.75;6.28;;;9.80;99.90;;;;;;5054035;28;20099;-24
2023/09/03 01:05:42;;;;;;;7.97;5.82;;;9.90;99.90;;;;;;5053658;28;20478;-24
2023/09/03 01:08:08;;;;;;;27.45;7.65;;;9.80;99.90;;;;;;5052959;28;20064;-23
2023/09/03 01:10:45;;;;;;;211.27;13.38;;;9.90;99.90;;;;;;5053611;28;20052;-24
2023/09/03 01:13:35;;;;;;;96.90;11.63;;;10.00;99.90;;;;;;5054254;28;20131;-23
2023/09/03 01:16:08;;;;;;;134.70;13.13;;;10.20;99.90;;;;;;5053863;28;20638;-23
2023/09/03 01:18:37;;;;;;;282.73;22.08;;;10.20;99.90;;;;;;5053634;28;20372;-24
2023/09/03 01:21:25;;;;;;;17.42;10.32;;;10.30;99.90;;;;;;5052892;28;20041;-24
2023/09/03 01:24:18;;;;;;;19.65;10.90;;;10.40;99.90;;;;;;5053496;28;20051;-23
2023/09/03 01:27:25;;;;;;;16.80;10.55;;;10.40;99.90;;;;;;5053916;28;20049;-24
2023/09/03 01:29:52;;;;;;;22.95;12.90;;;10.50;99.90;;;;;;5012632;28;20060;-24
2023/09/03 01:32:19;;;;;;;21.73;11.85;;;10.50;99.90;;;;;;4983108;28;20046;-24
2023/09/03 01:34:46;;;;;;;14.98;9.80;;;10.50;99.90;;;;;;5035514;28;20139;-23
2023/09/03 01:37:12;;;;;;;18.25;10.60;;;10.50;99.90;;;;;;5057431;28;20502;-24
2023/09/03 01:39:38;;;;;;;124.20;12.90;;;10.50;99.90;;;;;;5057283;28;20069;-23
2023/09/03 01:42:04;;;;;;;66.50;11.32;;;10.50;99.90;;;;;;5056425;28;20103;-23
2023/09/03 01:44:30;;;;;;;16.40;9.35;;;10.30;99.90;;;;;;5057637;28;20052;-23
2023/09/03 01:47:10;;;;;;;11.98;8.32;;;10.30;99.90;;;;;;5056030;28;20041;-24
2023/09/03 01:49:50;;;;;;;10.48;7.75;;;10.10;99.90;;;;;;5057823;28;20450;-24
2023/09/03 01:52:37;;;;;;;14.10;8.60;;;10.10;99.90;;;;;;5057852;28;20045;-23
2023/09/03 01:55:07;;;;;;;14.95;9.82;;;10.00;99.90;;;;;;5057993;28;20052;-23
2023/09/03 01:57:41;;;;;;;13.15;9.30;;;10.00;99.90;;;;;;5056851;28;20525;-24
2023/09/03 02:00:18;;;;;;;12.70;9.23;;;10.00;99.90;;;;;;5056759;28;20052;-23
2023/09/03 02:02:47;;;;;;;12.38;8.93;;;10.00;99.90;;;;;;5057877;28;20123;-24
2023/09/03 02:05:14;;;;;;;12.65;9.50;;;10.00;99.90;;;;;;5056875;28;20044;-24
2023/09/03 02:07:41;;;;;;;12.60;10.18;;;9.90;99.90;;;;;;5056897;28;20045;-24
2023/09/03 02:10:07;;;;;;;11.18;8.88;;;9.90;99.90;;;;;;5056912;28;20053;-23
2023/09/03 02:12:33;;;;;;;15.35;9.93;;;9.90;99.90;;;;;;5056793;28;20103;-23
2023/09/03 02:14:58;;;;;;;14.70;9.30;;;9.90;99.90;;;;;;5057037;28;20126;-23
2023/09/03 02:17:26;;;;;;;11.27;9.00;;;9.90;99.90;;;;;;5056728;28;20472;-23
2023/09/03 02:19:53;;;;;;;13.13;10.68;;;9.90;99.90;;;;;;5055482;28;20045;-23
2023/09/03 02:22:19;;;;;;;15.55;10.38;;;9.90;99.90;;;;;;5056392;28;20491;-24
2023/09/03 02:24:45;;;;;;;17.17;11.25;;;9.90;99.90;;;;;;5056580;28;20045;-24
2023/09/03 02:27:11;;;;;;;12.82;9.88;;;9.80;99.90;;;;;;5057035;28;20045;-24
2023/09/03 02:29:38;;;;;;;14.60;10.85;;;9.90;99.90;;;;;;5055575;28;20060;-24
2023/09/03 02:32:08;;;;;;;23.45;13.73;;;9.80;99.90;;;;;;5056480;28;20049;-24
2023/09/03 02:34:34;;;;;;;16.60;10.05;;;9.70;99.90;;;;;;5056408;28;20497;-24
2023/09/03 02:37:00;;;;;;;12.32;7.90;;;9.70;99.90;;;;;;5056663;28;20410;-24
2023/09/03 02:39:26;;;;;;;10.90;7.45;;;9.60;99.90;;;;;;5055028;28;20577;-23
2023/09/03 02:41:52;;;;;;;10.60;7.60;;;9.60;99.90;;;;;;5056239;28;20132;-23
2023/09/03 02:44:18;;;;;;;40.53;8.77;;;9.50;99.90;;;;;;5056186;28;20080;-23
2023/09/03 02:46:44;;;;;;;239.70;16.73;;;9.40;99.90;;;;;;5056119;28;20077;-23
2023/09/03 02:49:10;;;;;;;72.20;8.68;;;9.30;99.90;;;;;;5056117;28;20087;-24
2023/09/03 02:51:39;;;;;;;106.40;12.05;;;9.20;99.90;;;;;;5056085;28;20045;-23
2023/09/03 02:54:04;;;;;;;16.23;7.82;;;9.20;99.90;;;;;;5038752;28;20045;-23
2023/09/03 02:56:30;;;;;;;21.02;9.02;;;9.20;99.90;;;;;;5055359;28;20037;-23
2023/09/03 02:58:56;;;;;;;125.32;12.85;;;9.20;99.90;;;;;;5055950;28;20047;-23
2023/09/03 03:01:22;;;;;;;132.75;13.50;;;9.20;99.90;;;;;;5055948;28;20127;-23
2023/09/03 03:03:48;;;;;;;284.75;22.50;;;9.30;99.90;;;;;;5055854;28;20083;-23
2023/09/03 03:06:15;;;;;;;115.65;16.48;;;9.40;99.90;;;;;;5055737;28;20128;-23
2023/09/03 03:08:41;;;;;;;27.73;13.20;;;9.40;99.90;;;;;;5054777;28;20463;-23
2023/09/03 03:11:09;;;;;;;76.65;15.57;;;9.40;99.90;;;;;;5055412;28;20395;-23
2023/09/03 03:13:35;;;;;;;35.72;12.82;;;9.40;99.90;;;;;;5055686;28;20052;-23
2023/09/03 03:16:08;;;;;;;22.33;12.48;;;9.40;99.90;;;;;;5056450;28;20139;-23
2023/09/03 03:18:35;;;;;;;;;;;9.40;99.90;;;;;;5056051;28;20057;-24
2023/09/03 03:21:19;;;;;;;60.65;14.18;;;9.40;99.90;;;;;;5056369;28;19974;-23
2023/09/03 03:23:47;;;;;;;132.30;16.58;;;9.30;99.90;;;;;;5055550;28;20045;-24
2023/09/03 03:26:13;;;;;;;93.45;15.93;;;9.40;99.90;;;;;;5054310;28;20059;-23
2023/09/03 03:28:39;;;;;;;130.45;16.73;;;9.50;99.90;;;;;;5055450;28;20041;-24
2023/09/03 03:31:18;;;;;;;22.77;13.63;;;9.60;99.90;;;;;;5055396;28;20540;-23
2023/09/03 03:33:46;;;;;;;20.05;14.75;;;9.60;99.90;;;;;;5055343;28;20053;-23
2023/09/03 03:36:16;;;;;;;88.82;21.25;;;9.60;99.90;;;;;;5055228;28;20041;-23
2023/09/03 03:38:42;;;;;;;34.65;16.38;;;9.70;99.90;;;;;;5055191;28;20049;-23
2023/09/03 03:41:13;;;;;;;22.42;14.50;;;9.70;99.90;;;;;;5055693;28;20056;-23
2023/09/03 03:43:46;;;;;;;23.70;14.50;;;9.80;99.90;;;;;;5055107;28;20044;-23
2023/09/03 03:46:14;;;;;;;30.58;17.27;;;9.90;99.90;;;;;;5055007;28;20041;-23
2023/09/03 03:48:41;;;;;;;25.58;16.67;;;9.90;99.90;;;;;;5055173;28;20404;-23
2023/09/03 03:51:07;;;;;;;37.65;18.98;;;10.00;99.90;;;;;;5054997;28;20106;-23
2023/09/03 03:53:32;;;;;;;31.77;18.50;;;9.90;99.90;;;;;;5054170;28;20444;-23
2023/09/03 03:56:00;;;;;;;27.30;16.08;;;9.90;99.90;;;;;;5054940;28;20077;-23
2023/09/03 03:58:28;;;;;;;34.60;15.05;;;9.80;99.90;;;;;;5054808;28;20135;-23
2023/09/03 04:00:54;;;;;;;28.45;13.85;;;9.80;99.90;;;;;;5054761;28;20048;-23
2023/09/03 04:03:22;;;;;;;90.57;12.40;;;9.60;99.90;;;;;;5054709;28;20131;-23
2023/09/03 04:06:02;;;;;;;66.30;14.57;;;9.50;99.90;;;;;;5055129;28;20041;-23
2023/09/03 04:08:30;;;;;;;141.60;13.10;;;9.50;99.90;;;;;;5054631;28;20091;-24
2023/09/03 04:11:00;;;;;;;100.55;12.38;;;9.50;99.90;;;;;;5054436;28;20053;-23
2023/09/03 04:13:27;;;;;;;51.80;13.30;;;9.40;99.90;;;;;;5054201;28;20483;-23
2023/09/03 04:15:54;;;;;;;11.45;10.13;;;9.30;99.90;;;;;;5054513;28;20037;-23
2023/09/03 04:18:20;;;;;;;46.78;12.13;;;9.40;99.90;;;;;;5054994;28;20103;-23
2023/09/03 04:20:45;;;;;;;45.75;12.82;;;9.40;99.90;;;;;;5054411;28;20056;-23
2023/09/03 04:23:11;;;;;;;125.57;17.38;;;9.50;99.90;;;;;;5053178;28;20048;-23
2023/09/03 04:25:37;;;;;;;17.63;12.93;;;9.50;99.90;;;;;;5054266;28;20048;-23
2023/09/03 04:28:03;;;;;;;19.83;14.82;;;9.60;99.90;;;;;;5053114;28;20128;-23
2023/09/03 04:30:29;;;;;;;22.55;14.55;;;9.70;99.90;;;;;;5054257;28;20164;-23
2023/09/03 04:32:54;;;;;;;15.23;11.52;;;9.70;99.90;;;;;;5052965;28;20128;-23
2023/09/03 04:35:20;;;;;;;18.30;13.57;;;9.70;99.90;;;;;;5054732;28;20056;-23
2023/09/03 04:37:46;;;;;;;16.40;12.63;;;9.70;99.90;;;;;;5054116;28;20048;-23
2023/09/03 04:40:11;;;;;;;20.38;13.32;;;9.90;99.90;;;;;;5053795;28;20064;-23
2023/09/03 04:42:38;;;;;;;14.75;12.30;;;9.80;99.90;;;;;;5053980;28;20111;-23
2023/09/03 04:45:04;;;;;;;20.88;14.02;;;9.90;99.90;;;;;;5054798;28;20041;-23
2023/09/03 04:47:29;;;;;;;20.23;14.77;;;10.00;99.90;;;;;;5053590;28;20542;-23
2023/09/03 04:49:55;;;;;;;16.75;13.20;;;10.00;99.90;;;;;;5054449;28;20083;-23
2023/09/03 04:52:21;;;;;;;19.17;13.80;;;10.00;99.90;;;;;;5054413;28;20064;-23
2023/09/03 04:54:47;;;;;;;30.88;14.73;;;10.00;99.90;;;;;;5054678;28;20102;-23
2023/09/03 04:57:13;;;;;;;31.23;12.73;;;10.00;99.90;;;;;;5053811;28;20037;-23
2023/09/03 04:59:38;;;;;;;33.65;13.50;;;10.00;99.90;;;;;;5053811;28;20376;-23
2023/09/03 05:02:04;;;;;;;35.10;12.25;;;10.10;99.90;;;;;;5053969;28;20049;-23
2023/09/03 05:04:30;;;;;;;20.73;12.23;;;10.00;99.90;;;;;;5053502;28;20433;-24
2023/09/03 05:06:56;;;;;;;15.35;11.82;;;10.10;99.90;;;;;;5053163;28;20048;-23
2023/09/03 05:09:22;;;;;;;13.70;10.75;;;10.10;99.90;;;;;;5053640;28;20056;-23
2023/09/03 05:11:48;;;;;;;14.55;12.13;;;9.90;99.90;;;;;;5053612;28;20172;-23
2023/09/03 05:14:13;;;;;;;14.90;11.13;;;10.00;99.90;;;;;;5053597;28;20045;-23
2023/09/03 05:16:39;;;;;;;13.10;10.63;;;10.10;99.90;;;;;;5053843;28;20045;-23
2023/09/03 05:19:06;;;;;;;12.98;10.75;;;10.00;99.90;;;;;;5054088;28;20118;-23
2023/09/03 05:21:32;;;;;;;19.05;12.60;;;10.10;99.90;;;;;;5053793;28;20387;-23
2023/09/03 05:23:58;;;;;;;16.98;12.15;;;10.20;99.90;;;;;;5053773;28;20055;-23
2023/09/03 05:26:23;;;;;;;20.52;15.05;;;10.20;99.90;;;;;;5052317;28;20487;-23
2023/09/03 05:28:49;;;;;;;16.90;13.82;;;10.40;99.90;;;;;;5053999;28;20052;-23
2023/09/03 05:31:15;;;;;;;16.63;13.60;;;10.50;99.90;;;;;;5053497;28;20044;-23
2023/09/03 05:33:41;;;;;;;14.63;12.77;;;10.60;99.90;;;;;;5053970;28;20041;-23
2023/09/03 05:36:07;;;;;;;15.52;12.90;;;10.60;99.90;;;;;;5053404;28;20064;-23
2023/09/03 05:38:32;;;;;;;13.95;12.00;;;10.80;99.90;;;;;;5052426;28;20045;-23
2023/09/03 05:40:59;;;;;;;13.82;11.68;;;10.90;99.90;;;;;;5053327;28;20144;-23
2023/09/03 05:43:26;;;;;;;17.40;12.40;;;10.90;99.90;;;;;;5053106;28;20127;-23
2023/09/03 05:45:52;;;;;;;14.90;11.57;;;11.00;99.90;;;;;;5053564;28;20391;-23
2023/09/03 05:48:18;;;;;;;12.35;10.95;;;11.00;99.90;;;;;;5053122;28;20049;-23
2023/09/03 05:50:43;;;;;;;11.70;10.18;;;11.10;99.90;;;;;;5053280;28;20052;-24
2023/09/03 05:53:09;;;;;;;13.30;10.75;;;11.20;99.90;;;;;;5053786;28;20049;-23
2023/09/03 05:55:39;;;;;;;13.00;9.90;;;11.30;99.90;;;;;;5053748;28;20052;-23
2023/09/03 05:58:06;;;;;;;11.05;9.80;;;11.30;99.90;;;;;;5053452;28;20498;-23
2023/09/03 06:00:32;;;;;;;10.80;9.70;;;11.40;99.90;;;;;;5053157;28;20048;-23
2023/09/03 06:02:57;;;;;;;11.88;10.65;;;11.40;99.90;;;;;;5053717;28;20049;-23
2023/09/03 06:05:29;;;;;;;11.63;9.65;;;11.60;99.90;;;;;;5051881;28;20069;-23
2023/09/03 06:07:57;;;;;;;9.85;8.88;;;11.70;99.90;;;;;;5053631;28;20486;-23
2023/09/03 06:10:24;;;;;;;9.95;8.95;;;11.80;99.90;;;;;;5053111;28;20415;-24
2023/09/03 06:12:50;;;;;;;10.00;8.43;;;11.80;99.90;;;;;;5053351;28;20049;-23
2023/09/03 06:15:16;;;;;;;10.25;9.25;;;11.90;99.90;;;;;;5053335;28;20537;-23
2023/09/03 06:17:41;;;;;;;9.32;8.32;;;11.90;99.90;;;;;;5056222;28;20087;-23
2023/09/03 06:20:07;;;;;;;10.70;9.60;;;12.10;99.90;;;;;;5056791;28;20102;-23
2023/09/03 06:22:33;;;;;;;9.65;8.65;;;12.20;99.90;;;;;;5056678;28;20052;-24
2023/09/03 06:24:59;;;;;;;10.63;9.05;;;12.20;99.90;;;;;;5056703;28;20399;-23
2023/09/03 06:27:24;;;;;;;10.00;9.00;;;12.30;99.90;;;;;;5055856;28;20045;-23
2023/09/03 06:29:50;;;;;;;12.75;9.48;;;12.50;99.90;;;;;;5056558;28;20425;-23
2023/09/03 06:32:16;;;;;;;13.48;10.80;;;12.50;99.90;;;;;;5055361;28;20048;-23
2023/09/03 06:34:41;;;;;;;14.40;11.25;;;12.80;99.90;;;;;;5056415;28;20131;-23
2023/09/03 06:37:08;;;;;;;13.63;11.43;;;12.80;99.90;;;;;;5056443;28;20049;-23
2023/09/03 06:39:33;;;;;;;16.60;12.30;;;13.00;99.90;;;;;;5056353;28;20067;-23
2023/09/03 06:41:59;;;;;;;17.10;13.93;;;13.10;99.90;;;;;;5057208;28;20475;-23
2023/09/03 06:44:25;;;;;;;16.08;13.18;;;13.30;99.90;;;;;;5056216;28;20048;-24
2023/09/03 06:46:50;;;;;;;18.92;14.38;;;13.40;99.90;;;;;;5055823;28;20545;-24
2023/09/03 06:49:16;;;;;;;19.83;13.05;;;13.50;99.90;;;;;;5056729;28;20379;-24
2023/09/03 06:51:42;;;;;;;16.88;13.30;;;13.70;99.90;;;;;;5056134;28;20071;-24
2023/09/03 06:54:07;;;;;;;18.77;14.00;;;13.80;99.90;;;;;;5056151;28;20049;-24
2023/09/03 06:56:33;;;;;;;18.65;13.65;;;14.00;99.90;;;;;;5056044;28;20049;-24
2023/09/03 06:58:59;;;;;;;16.85;12.70;;;14.20;99.90;;;;;;5056000;28;20128;-24
2023/09/03 07:01:24;;;;;;;17.27;12.43;;;14.20;99.90;;;;;;5055652;28;20048;-24
2023/09/03 07:03:50;;;;;;;14.85;12.82;;;14.40;99.90;;;;;;5055954;28;20084;-24
2023/09/03 07:06:16;;;;;;;13.15;11.85;;;14.60;99.90;;;;;;5055752;28;20048;-24
2023/09/03 07:08:41;;;;;;;14.02;11.85;;;14.80;99.90;;;;;;5055867;28;20049;-24
2023/09/03 07:11:07;;;;;;;12.50;10.10;;;14.90;99.90;;;;;;5054602;28;20480;-24
2023/09/03 07:13:33;;;;;;;10.20;9.13;;;15.10;99.90;;;;;;5055730;28;20045;-24
2023/09/03 07:16:04;;;;;;;12.73;9.73;;;15.30;99.90;;;;;;5054516;28;20048;-24
2023/09/03 07:18:30;;;;;;;9.27;8.27;;;15.50;99.90;;;;;;5056517;28;20118;-24
2023/09/03 07:21:05;;;;;;;9.82;7.88;;;15.60;99.90;;;;;;5056173;28;20135;-24
2023/09/03 07:23:31;;;;;;;8.82;6.50;;;15.80;99.90;;;;;;5054402;28;20406;-25
2023/09/03 07:26:10;;;;;;;7.78;6.10;;;16.00;99.90;;;;;;5055439;28;20064;-25
2023/09/03 07:28:38;;;;;;;8.95;7.10;;;16.10;99.90;;;;;;5054487;28;20056;-25
2023/09/03 07:31:04;;;;;;;6.65;5.85;;;16.30;99.90;;;;;;5055086;28;20487;-25
2023/09/03 07:33:32;;;;;;;8.25;5.60;;;16.40;99.90;;;;;;5055418;28;20132;-24
2023/09/03 07:35:58;;;;;;;7.60;5.53;;;16.40;99.90;;;;;;5055176;28;20127;-25
2023/09/03 07:38:27;;;;;;;9.60;7.05;;;16.50;99.90;;;;;;5055296;28;20068;-25
2023/09/03 07:40:53;;;;;;;6.53;5.70;;;16.60;99.90;;;;;;5055570;28;20053;-25
2023/09/03 07:43:18;;;;;;;9.68;6.53;;;16.60;99.90;;;;;;5055128;28;20049;-24
2023/09/03 07:45:45;;;;;;;8.23;5.90;;;16.70;99.90;;;;;;5055072;28;20039;-24
2023/09/03 07:48:11;;;;;;;7.88;5.70;;;16.80;99.90;;;;;;5053939;28;20497;-25
2023/09/03 07:50:40;;;;;;;6.78;5.75;;;16.90;99.90;;;;;;5037407;28;20132;-25
2023/09/03 07:53:06;;;;;;;7.25;6.10;;;16.90;99.90;;;;;;5054737;28;20066;-25
2023/09/03 07:55:31;;;;;;;7.50;5.25;;;17.00;99.90;;;;;;5055455;28;20049;-25
2023/09/03 07:57:57;;;;;;;6.70;4.68;;;16.90;99.90;;;;;;5054905;28;20092;-25
2023/09/03 08:00:23;;;;;;;6.60;5.35;;;17.00;99.90;;;;;;5054520;28;20076;-25
2023/09/03 08:02:49;;;;;;;6.70;5.10;;;17.00;99.90;;;;;;5054813;28;20394;-25
2023/09/03 08:05:16;;;;;;;8.40;5.28;;;17.10;99.90;;;;;;5054934;28;20040;-26
2023/09/03 08:07:42;;;;;;;5.22;4.35;;;17.10;99.90;;;;;;5055286;28;20049;-26
2023/09/03 08:10:08;;;;;;;7.10;5.05;;;17.20;99.90;;;;;;5054713;28;20045;-25
2023/09/03 08:12:34;;;;;;;8.95;4.45;;;17.30;99.90;;;;;;5053457;28;20095;-26
2023/09/03 08:15:00;;;;;;;9.30;5.22;;;17.40;99.90;;;;;;5054589;28;20049;-25
2023/09/03 08:17:26;;;;;;;5.85;3.25;;;17.50;99.90;;;;;;5054591;28;20552;-25
2023/09/03 08:19:52;;;;;;;4.72;3.13;;;17.70;99.90;;;;;;5054512;28;20045;-26
2023/09/03 08:22:18;;;;;;;7.53;3.15;;;17.70;99.90;;;;;;5054710;28;20497;-26
2023/09/03 08:24:43;;;;;;;5.85;4.07;;;17.70;99.90;;;;;;5054376;28;20071;-26
2023/09/03 08:27:09;;;;;;;5.32;3.25;;;17.80;99.90;;;;;;5055129;28;20045;-26
2023/09/03 08:29:35;;;;;;;4.45;3.55;;;17.90;99.90;;;;;;5037058;28;20049;-25
2023/09/03 08:32:00;;;;;;;6.15;3.20;;;17.90;99.90;;;;;;5054282;28;20037;-26
2023/09/03 08:34:26;;;;;;;5.45;4.07;;;18.00;99.90;;;;;;5053499;28;20049;-26
2023/09/03 08:36:52;;;;;;;4.25;2.90;;;18.00;99.90;;;;;;5053007;28;20143;-26
2023/09/03 08:39:17;;;;;;;6.32;3.70;;;18.10;99.90;;;;;;5052766;28;20044;-26
2023/09/03 08:41:46;;;;;;;5.55;4.20;;;18.20;99.90;;;;;;5054394;28;20063;-26
2023/09/03 08:44:40;;;;;;;7.40;3.53;;;18.20;99.90;;;;;;5053960;28;20087;-26
2023/09/03 08:47:10;;;;;;;6.40;3.88;;;18.20;99.90;;;;;;5050714;28;20113;-26
2023/09/03 08:49:37;;;;;;;7.20;3.88;;;18.30;99.90;;;;;;5054246;28;20053;-26
2023/09/03 08:52:04;;;;;;;6.07;3.10;;;18.40;99.90;;;;;;5053925;28;20048;-26
2023/09/03 08:54:30;;;;;;;6.82;3.75;;;18.40;99.90;;;;;;5053295;28;20458;-26
2023/09/03 08:56:58;;;;;;;3.72;2.63;;;18.40;99.90;;;;;;5052588;28;20080;-26
2023/09/03 08:59:24;;;;;;;6.75;3.30;;;18.50;99.90;;;;;;5053806;28;20048;-25
2023/09/03 09:01:53;;;;;;;8.48;4.00;;;18.70;99.90;;;;;;5052584;28;20052;-26
2023/09/03 09:04:19;;;;;;;5.00;3.53;;;18.90;99.90;;;;;;5052794;28;20044;-26
2023/09/03 09:06:46;;;;;;;4.30;2.92;;;19.10;99.90;;;;;;5054431;28;20045;-26
2023/09/03 09:09:14;;;;;;;5.28;2.90;;;19.20;80.10;;;;;;5052462;28;20045;-25
2023/09/03 09:11:47;;;;;;;3.65;2.83;;;19.50;1.00;;;;;;5036106;28;20057;-26
2023/09/03 09:14:31;;;;;;;3.78;2.35;;;19.60;99.90;;;;;;5053268;28;20399;-26
2023/09/03 09:16:56;;;;;;;4.57;2.58;;;19.70;99.90;;;;;;5035757;28;20056;-25
2023/09/03 09:19:22;;;;;;;4.88;2.53;;;20.00;99.90;;;;;;5053518;28;20048;-26
2023/09/03 09:21:48;;;;;;;3.72;2.33;;;20.60;99.90;;;;;;5053113;28;20045;-27
2023/09/03 09:24:14;;;;;;;4.15;2.38;;;20.60;1.00;;;;;;5053791;28;20128;-26
2023/09/03 09:26:39;;;;;;;3.72;1.88;;;21.00;99.90;;;;;;5053398;28;20033;-27
2023/09/03 09:29:06;;;;;;;3.83;1.92;;;21.30;99.90;;;;;;5053691;28;20048;-26
2023/09/03 09:31:35;;;;;;;3.30;1.98;;;21.10;77.70;;;;;;5052492;28;20052;-27
2023/09/03 09:34:10;;;;;;;6.93;2.88;;;20.80;1.00;;;;;;5052824;28;20049;-27
2023/09/03 09:36:36;;;;;;;3.58;2.00;;;21.00;99.90;;;;;;5053962;28;20052;-26
2023/09/03 09:39:06;;;;;;;3.78;1.88;;;21.10;1.00;;;;;;5052363;28;20044;-26
2023/09/03 09:41:37;;;;;;;3.70;1.70;;;21.60;1.00;;;;;;5053386;28;20064;-26
2023/09/03 09:44:12;;;;;;;3.63;2.13;;;21.70;99.90;;;;;;5053295;28;20064;-26
2023/09/03 09:46:39;;;;;;;4.85;2.35;;;22.00;1.00;;;;;;5054156;28;20392;-26
2023/09/03 09:49:06;;;;;;;5.45;2.13;;;22.10;99.90;;;;;;5052330;28;20399;-26
2023/09/03 09:51:32;;;;;;;4.75;2.35;;;22.30;99.90;;;;;;5054724;28;20483;-25
2023/09/03 09:54:03;;;;;;;5.00;1.73;;;22.90;1.00;;;;;;5057212;28;20084;-26
2023/09/03 09:56:31;;;;;;;3.40;1.60;;;23.10;99.90;;;;;;5056016;28;20051;-27
2023/09/03 09:58:58;;;;;;;2.88;1.48;;;22.80;99.90;;;;;;5057163;28;20056;-28
2023/09/03 10:01:27;;;;;;;2.53;1.50;;;22.90;1.00;;;;;;5040516;28;20052;-28
2023/09/03 10:03:53;;;;;;;3.53;1.10;;;22.70;99.90;;;;;;5055628;28;20558;-28
2023/09/03 10:06:21;;;;;;;3.83;1.60;;;23.10;99.90;;;;;;5056352;28;20049;-28
2023/09/03 10:08:48;;;;;;;5.40;1.38;;;22.90;99.90;;;;;;5056979;28;20049;-28
2023/09/03 10:11:14;;;;;;;2.35;1.23;;;22.80;1.00;;;;;;5056921;28;20045;-28
2023/09/03 10:13:41;;;;;;;2.40;1.45;;;22.30;1.00;;;;;;5055719;28;20048;-28
2023/09/03 10:16:11;;;;;;;3.65;1.48;;;22.10;99.90;;;;;;5056912;28;20049;-28
2023/09/03 10:18:50;;;;;;;3.80;1.58;;;22.10;99.90;;;;;;5056792;28;20127;-28
2023/09/03 10:21:24;;;;;;;2.97;1.50;;;22.40;43.20;;;;;;5056703;28;20056;-28
2023/09/03 10:23:51;;;;;;;3.10;1.15;;;22.50;1.00;;;;;;5056411;28;20570;-28
2023/09/03 10:26:26;;;;;;;2.60;1.80;;;22.80;99.90;;;;;;5039706;28;20414;-28
2023/09/03 10:28:59;;;;;;;5.70;1.80;;;22.80;1.00;;;;;;5057470;28;20080;-28
2023/09/03 10:31:26;;;;;;;2.20;1.27;;;22.70;99.90;;;;;;5056852;28;20541;-28
2023/09/03 10:33:52;;;;;;;3.88;1.52;;;22.60;99.90;;;;;;5057069;28;20045;-28
2023/09/03 10:36:19;;;;;;;2.67;1.38;;;22.50;1.00;;;;;;5056333;28;20043;-28
2023/09/03 10:38:45;;;;;;;2.63;1.50;;;22.70;99.90;;;;;;5056302;28;20143;-29
2023/09/03 10:41:29;;;;;;;3.42;1.33;;;22.70;1.00;;;;;;5054841;28;20114;-28
2023/09/03 10:43:55;;;;;;;2.83;1.50;;;22.90;99.90;;;;;;5022575;28;20114;-28
2023/09/03 10:46:22;;;;;;;3.72;1.58;;;22.70;99.90;;;;;;5055196;28;20083;-28
2023/09/03 10:48:57;;;;;;;2.65;1.30;;;22.50;99.90;;;;;;5054978;28;20053;-28
2023/09/03 10:51:34;;;;;;;2.95;1.20;;;22.30;1.00;;;;;;5056446;28;20040;-28
2023/09/03 10:54:20;;;;;;;1.63;0.90;;;22.50;1.00;;;;;;5056172;28;20458;-28
2023/09/03 10:57:05;;;;;;;3.42;1.05;;;22.70;99.90;;;;;;5055808;28;20455;-28
2023/09/03 10:59:58;;;;;;;3.65;1.30;;;23.40;99.90;;;;;;5055738;28;20437;-28
2023/09/03 11:02:28;;;;;;;3.13;1.45;;;23.80;99.90;;;;;;5055933;28;20045;-28
2023/09/03 11:05:16;;;;;;;2.15;1.30;;;24.10;99.90;;;;;;5056741;28;20446;-28
2023/09/03 11:07:44;;;;;;;2.90;1.33;;;23.70;99.90;;;;;;5054848;28;20049;-28
2023/09/03 11:10:24;;;;;;;2.45;1.42;;;23.40;99.90;;;;;;5055826;28;20045;-29
2023/09/03 11:12:52;;;;;;;2.47;1.30;;;22.80;1.00;;;;;;5055832;28;20132;-28
2023/09/03 11:15:18;;;;;;;3.40;1.27;;;22.70;99.90;;;;;;5055683;28;20049;-28
2023/09/03 11:17:51;;;;;;;3.60;1.27;;;22.90;99.90;;;;;;5054357;28;20053;-28
2023/09/03 11:20:34;;;;;;;4.95;1.50;;;23.50;79.10;;;;;;5056139;28;20044;-28
2023/09/03 11:23:03;;;;;;;5.38;1.70;;;23.20;1.00;;;;;;5055418;28;20479;-30
2023/09/03 11:25:37;;;;;;;2.83;1.30;;;22.80;99.90;;;;;;5054167;28;20056;-28
2023/09/03 11:28:16;;;;;;;2.42;1.45;;;22.90;99.90;;;;;;5055305;28;20053;-28
2023/09/03 11:30:44;;;;;;;2.33;1.10;;;23.00;1.00;;;;;;5055282;28;20080;-28
2023/09/03 11:33:30;;;;;;;3.17;1.42;;;23.40;1.00;;;;;;5037810;28;20483;-28
2023/09/03 11:35:59;;;;;;;2.45;1.50;;;23.80;99.90;;;;;;5037543;28;20045;-28
2023/09/03 11:38:25;;;;;;;2.95;1.30;;;24.20;99.90;;;;;;5055133;28;20084;-29
2023/09/03 11:40:58;;;;;;;2.53;1.20;;;24.10;99.90;;;;;;5055386;28;20068;-28
2023/09/03 11:43:26;;;;;;;2.72;1.30;;;24.30;99.90;;;;;;5055166;28;20132;-28
2023/09/03 11:45:52;;;;;;;2.33;0.90;;;24.10;99.90;;;;;;5055584;28;20127;-28
2023/09/03 11:48:29;;;;;;;2.95;1.33;;;23.00;99.90;;;;;;5054190;28;20080;-28
2023/09/03 11:50:56;;;;;;;2.40;0.88;;;22.40;99.90;;;;;;5055118;28;20049;-29
2023/09/03 11:53:24;;;;;;;3.80;1.25;;;22.80;35.60;;;;;;5055067;28;20045;-29
2023/09/03 11:55:54;;;;;;;2.10;0.95;;;23.30;1.00;;;;;;5055527;28;20142;-30
2023/09/03 11:58:22;;;;;;;3.03;1.58;;;23.80;1.00;;;;;;5054945;28;20055;-29
2023/09/03 12:00:48;;;;;;;1.48;0.88;;;24.00;1.00;;;;;;5054869;28;20114;-28
2023/09/03 12:03:15;;;;;;;1.02;0.70;;;24.10;99.90;;;;;;5053657;28;20132;-29
2023/09/03 12:05:40;;;;;;;2.72;1.02;;;24.10;1.00;;;;;;5054445;28;20075;-28
2023/09/03 12:08:06;;;;;;;4.07;1.10;;;24.10;99.90;;;;;;5053595;28;20475;-28
2023/09/03 12:10:32;;;;;;;3.70;0.65;;;23.90;99.90;;;;;;5054626;28;20123;-28
2023/09/03 12:12:59;;;;;;;2.50;1.00;;;23.90;99.90;;;;;;5053374;28;20132;-28
2023/09/03 12:15:26;;;;;;;1.20;0.63;;;23.90;99.90;;;;;;5054173;28;20041;-28
2023/09/03 12:17:52;;;;;;;2.15;0.80;;;23.80;99.90;;;;;;5054507;28;20537;-29
2023/09/03 12:20:31;;;;;;;1.67;1.10;;;24.00;33.80;;;;;;5036940;28;20048;-29
2023/09/03 12:23:20;;;;;;;1.20;0.63;;;24.10;96.00;;;;;;5054466;28;20085;-29
2023/09/03 12:25:46;;;;;;;2.42;0.65;;;24.20;1.00;;;;;;5053693;28;20041;-29
2023/09/03 12:28:12;;;;;;;4.50;1.15;;;24.70;1.00;;;;;;5020304;28;20059;-29
2023/09/03 12:30:57;;;;;;;2.15;0.60;;;24.70;1.00;;;;;;5054339;28;20049;-28
2023/09/03 12:33:42;;;;;;;7.32;0.70;;;25.10;99.90;;;;;;5054273;28;20124;-28
2023/09/03 12:36:13;;;;;;;1.45;0.70;;;25.60;99.90;;;;;;5053096;28;20041;-26
2023/09/03 12:38:54;;;;;;;1.95;0.60;;;26.00;99.90;;;;;;5054191;28;20049;-27
2023/09/03 12:41:32;;;;;;;1.23;0.50;;;25.80;99.90;;;;;;5052529;28;20063;-27
2023/09/03 12:44:06;;;;;;;1.55;0.68;;;25.60;99.90;;;;;;5053332;28;20088;-27
2023/09/03 12:46:33;;;;;;;3.75;0.70;;;25.40;99.90;;;;;;5053921;28;20052;-27
2023/09/03 12:48:59;;;;;;;3.53;1.02;;;26.20;99.90;;;;;;5053978;28;20052;-27